Share

Powranna, Tasmania

Launceston (YMLT) Elev 561 ft | 41.55 °S, 147.21 °E | Change Station

Current weather conditions updated 14 minutes ago

Clear
Clear
46 °F
Feels Like 42 °F
N
8
Wind Variable Wind from NNW
Sunrise 6:46 AM
Sunset 5:32 PM
Moon Waning Gibbous

Tomorrow is forecast to be nearly the same temperature as today. Late day light rain.

Pressure 29.92 in
Visibility 6.2 miles
Clouds
Windchill 42 °F
Dew Point 45 °F
Humidity 93%
Rainfall 0.00 in
Snow Depth Not available.
UV Not available.
Pollen Not available.
Air Quality Not available.
Flu Activity Not available.
METAR YMLT 201000Z AUTO 33007KT 9999 // NCD 08/07 Q1013

More Conditions Fewer Conditions

Pressure 29.92 in
Visibility 6.2 miles
Clouds
Windchill 42 °F
Dew Point 45 °F
Humidity 93%
Rainfall 0.00 in
Snow Depth Not available.
UV Not available.
Pollen Not available.
Air Quality Not available.
Flu Activity Not available.
METAR YMLT 201000Z AUTO 33007KT 9999 // NCD 08/07 Q1013

More Conditions Fewer Conditions

10-Day Weather Forecast

Almanac

Astronomy

Apr. 20, 2014 Rise Set
Actual Time 6:46 AM EST 5:32 PM EST
Civil Twilight 6:18 AM EST 6:00 PM EST
Nautical Twilight 5:45 AM EST 6:33 PM EST
Astronomical Twilight 5:13 AM EST 7:05 PM EST
Moon 9:33 PM EST 11:28 AM EST
Length of Visible Light 11h 42m
Length of Day
10h 46m
Tomorrow will be 2m 33s shorter.
Waning Gibbous, 71% of the Moon is Illuminated
Today
Waning Gibbous
Apr 22
Last Quarter
Apr 29
New
May 6
First Quarter
May 14
Full

Yesterday's Extremes

Country Highs Country Lows

Community

  • Easter Greetings
    Easter Greetings
  • Sunny day at the coast-Cape Arago Lighthouse
    Sunny day at the coast-Cape Arago Lighthouse
  • Cherry Blossoms
    Cherry Blossoms
  • White-Crowned Sparrow
    White-Crowned Sparrow
  • New Day
    New Day

WunderPhotos

Upload Photos

1,703,132 photos uploaded!

WunderBlogs® & News

Nearby

Snow Depth

Not available.

Coastal Water Temperatures

Place Temperature
No Stations Reporting

Earthquake Activity

City Distance Mag. Time & Date
No recent earthquake activity has been reported nearby.
Minimum magnitude displayed is 2.5.

Nearby Weather Stations

Station Location Temp. Windchill Dew Point Humidity Wind Precip. Elev Updated Type
Summerhill, Launceston 53.4 °F - 48 °F 83% NW  at  3.0 mph 0.00 in / hr 561 ft 8:14 PM EST Rapid Fire
Riverside, Launceston 51.4 °F - -3 °F 10% North  at  0.0 mph 0.00 in / hr 200 ft 8:14 PM EST Rapid Fire
Bridgenorth, Launceston 49.8 °F 50 °F 44 °F 82% West  at  0.0 mph 0.00 in / hr 781 ft 8:14 PM EST Normal

Show More Stations Show Fewer Stations

What do you think?

We're not finished. Please let us know what you like, what you don't like, and what you are still missing.